APRS [IN63QA], 0 Stunde(n), DL3EL [03:45:42, 0s].
EA1CZ 43.05.15N 006.33.28WIN63RC 9.230km 38°NE01:39:44Z IN63RC PLXDigi Voltaje=12.2 v.(3EA1CZ-2)
ED1YBD 43.09.56N 006.29.74WIN63SD 18.641km 34°NE01:36:36Z IN63SD(3ED1YBD-3)
LEBO 43.01.62N 006.53.05WIN63NA 21.090km 272°W01:30:03ZHelipuerto de Ibias: LEAS 290030Z 23009KT CAVOK 14/09 Q1026=
LETN 43.20.05N 006.22.69WIN63TI 40.171km 30°NNE01:30:03ZAerodromo de La Curiscada (Tineo): LEAS 290030Z 23009KT CAVOK 14/09 Q1026=
EA1BQO 42.36.55N 006.26.44WIN62SO 48.166km 162°SSE01:35:34ZUI-View32 V2.03
Wind 228°/000kn, Böen bis 003kn, Temp 8.33c, Regen 0.0mm, letzte 24h 0.0mm, seit 0h 0.0mm, Baro 1021.7h, Hum: 99%(2EA1BQO-1)

aprs.pl 5.0.011w DL3EL © 2006-2021 [913361]